Key West, FL

01:54 EDT le 30 septembre 2014 (GMT -0400)
Big Coppitt Key Gulfside | Change Station
CLOSE
Current Station
Stations météorologiques personnelles
Location: Key West, FL
Altitude: 31 ft
Stations météo à proximité

Alt. 31 ft 24.60 °N, 81.67 °W | Updated 13 minutes ago

Ciel dégagé
Ciel dégagé
81.9 ° F
Paraît 89 ° F
N
2.2
Vent Variable Vent de SSO

Aujourd'hui
Haut(e) -- | Bas -- ° F
--% Risque de précip.
Hier
Haut(e) -- | Bas -- ° F
Precip. -- pouce
7:18 AM 7:14 PM
Lune montante, 33% visible
Pression 29.88 pouce
Visibilité 10.0 Miles terrestres
Nuages Ciel dégagé
indice de chaleur 89 ° F
Point de rosée 76 ° F
Humidité 82%
Précipitations 0.00 pouce
Profondeur de la couche neigeuse Non disponible.
UV 0 sur 12
Pollen 4.20 sur 12
Qualité de l'air Non disponible.
Flu Activity Non disponible.
METAR KNQX 300453Z AUTO 00000KT 10SM CLR 28/24 A2988 RMK AO2 SLP118 T02780239 403170272 $

More Conditions Fewer Conditions

Pression 29.88 pouce
Visibilité 10.0 Miles terrestres
Nuages Ciel dégagé
indice de chaleur 89 ° F
Point de rosée 76 ° F
Humidité 82%
Précipitations 0.00 pouce
Profondeur de la couche neigeuse Non disponible.
UV 0 sur 12
Pollen 4.20 sur 12
Qualité de l'air Non disponible.
Flu Activity Non disponible.
METAR KNQX 300453Z AUTO 00000KT 10SM CLR 28/24 A2988 RMK AO2 SLP118 T02780239 403170272 $

More Conditions Fewer Conditions

10-Day Weather Forecast

Almanac

Astronomie

Sep. 30, 2014 Lever Coucher
Temps réel 07:18 EDT 19:14 EDT
Crépuscule civil 06:55 EDT 19:37 EDT
Crépuscule nautique 06:28 EDT 20:03 EDT
Crépuscule astronomique 06:02 EDT 20:29 EDT
Lune 12:57 EDT Pas de coucher de lune
Durée de lumière visible 12h 41m
Longueur du jour
11h 56m
Tomorrow will be 1m 25s shorter.
Lune montante, 33% of the Moon is Illuminated
Aujourd'hui
Lune montante
Oct 1
Premier quartier
Oct 8
Pleine lune
Oct 15
Dernier quartier
Oct 23
Nouveau

Extrêmes aujourd'hui

State Highs State Lows

Community

WunderPhotos

Upload Photos

1,757,577 Photos téléchargées !

Nearby

Épaisseur de neige

Station Depth Altitude
Pas de nouvelles chutes de neige

Activité sismique

Ville Distance Mag. Time & Date
No recent earthquake activity has been reported nearby.
Minimum magnitude displayed is 2.5.

Températures des eaux côtières

Lieu Température
Key West, FL 86.0 ° F
Vaca Key, FL 88.0 ° F

Stations météo à proximité